Time;durP1;ratioP1;P1;durP2;ratioP2;P2;SDS_P1;SDS_P2;PMS_P1;PMS_P2;Temp;Humidity;BMP_temperature;BMP_pressure;BME280_temperature;BME280_humidity;BME280_pressure;Samples;Min_cycle;Max_cycle;Signal;HPM_P1;HPM_P2
2022/06/18 00:01:41;;;;;;;3.83;2.70;;;;;22.50;101405.00;;;;10198598;29;20204;-79
2022/06/18 00:06:52;;;;;;;3.35;2.53;;;;;22.50;101409.00;;;;10214389;28;20276;-79
2022/06/18 00:17:19;;;;;;;6.35;2.97;;;;;22.50;101402.00;;;;10246621;29;20197;-78
2022/06/18 00:22:23;;;;;;;4.22;2.13;;;;;22.50;101399.00;;;;10226645;29;20221;-79
2022/06/18 00:27:25;;;;;;;5.30;2.55;;;;;22.50;101400.00;;;;10203662;29;20197;-79
2022/06/18 00:32:26;;;;;;;6.22;2.85;;;;;22.50;101395.00;;;;10244893;29;20198;-79
2022/06/18 00:37:29;;;;;;;5.38;2.33;;;;;22.50;101395.00;;;;10244681;29;20190;-79
2022/06/18 00:42:31;;;;;;;5.78;3.10;;;;;22.40;101387.00;;;;10212374;29;20297;-78
2022/06/18 00:47:41;;;;;;;5.63;2.83;;;;;22.40;101383.00;;;;10212297;29;20225;-78
2022/06/18 00:52:50;;;;;;;4.43;2.58;;;;;22.30;101379.00;;;;10226909;29;20578;-78
2022/06/18 00:57:59;;;;;;;3.70;2.50;;;;;22.30;101378.00;;;;10225760;29;20285;-78
2022/06/18 01:03:01;;;;;;;3.67;2.80;;;;;22.20;101383.00;;;;10209735;29;20197;-79
2022/06/18 01:08:14;;;;;;;7.25;3.05;;;;;22.10;101373.00;;;;10225884;29;20224;-79
2022/06/18 01:13:21;;;;;;;7.07;2.85;;;;;22.00;101372.00;;;;10242123;29;20593;-79
2022/06/18 01:18:24;;;;;;;5.07;2.65;;;;;21.90;101368.00;;;;10225901;29;20198;-78
2022/06/18 01:23:55;;;;;;;5.10;3.20;;;;;21.90;101367.00;;;;10241021;29;20221;-79
2022/06/18 01:28:57;;;;;;;8.18;3.10;;;;;21.90;101348.00;;;;10225306;29;20205;-79
2022/06/18 01:34:00;;;;;;;4.50;2.97;;;;;21.80;101338.00;;;;10218781;29;20236;-78
2022/06/18 01:39:12;;;;;;;4.43;2.85;;;;;21.80;101343.00;;;;10215218;29;20198;-79
2022/06/18 01:44:20;;;;;;;4.30;2.70;;;;;21.70;101329.00;;;;10208883;29;20657;-79
2022/06/18 01:49:28;;;;;;;5.80;2.95;;;;;21.70;101337.00;;;;10208828;29;20205;-78
2022/06/18 01:54:52;;;;;;;7.10;3.05;;;;;21.80;101327.00;;;;10224109;29;20265;-79
2022/06/18 02:00:00;;;;;;;3.42;2.78;;;;;21.80;101336.00;;;;10209535;29;20217;-80
2022/06/18 02:05:17;;;;;;;2.97;2.63;;;;;21.70;101343.00;;;;10226214;29;20615;-79
2022/06/18 02:10:29;;;;;;;4.95;3.50;;;;;21.70;101332.00;;;;10199784;29;20229;-79
2022/06/18 02:15:40;;;;;;;8.05;3.65;;;;;21.60;101332.00;;;;10199795;29;20650;-78
2022/06/18 02:20:47;;;;;;;6.32;2.88;;;;;21.50;101339.00;;;;10203283;29;20649;-79
2022/06/18 02:25:49;;;;;;;5.03;3.20;;;;;21.50;101335.00;;;;10222980;29;20212;-78
2022/06/18 02:30:57;;;;;;;7.18;2.90;;;;;21.50;101337.00;;;;10190052;29;20261;-78
2022/06/18 02:36:09;;;;;;;9.50;3.08;;;;;21.50;101332.00;;;;10223234;29;20537;-79
2022/06/18 02:41:12;;;;;;;4.22;2.90;;;;;21.50;101337.00;;;;10224101;29;20189;-79
2022/06/18 02:46:14;;;;;;;4.57;2.70;;;;;21.40;101325.00;;;;10223530;29;20205;-79
2022/06/18 02:51:17;;;;;;;4.78;3.35;;;;;21.30;101321.00;;;;10238132;29;20212;-79
2022/06/18 02:56:19;;;;;;;8.48;3.22;;;;;21.30;101322.00;;;;10170620;29;20194;-78
2022/06/18 03:01:26;;;;;;;4.72;3.20;;;;;21.20;101318.00;;;;10203891;29;20354;-78
2022/06/18 03:06:30;;;;;;;5.75;3.25;;;;;21.10;101317.00;;;;10235713;29;20217;-78
2022/06/18 03:16:53;;;;;;;5.15;3.47;;;;;20.90;101311.00;;;;10223607;29;20202;-79
2022/06/18 03:22:03;;;;;;;4.97;3.63;;;;;20.80;101310.00;;;;10228372;29;20253;-79
2022/06/18 03:27:05;;;;;;;8.68;3.88;;;;;20.80;101313.00;;;;10230460;29;20209;-79
2022/06/18 03:32:07;;;;;;;8.75;3.67;;;;;20.70;101320.00;;;;10214363;29;20244;-79
2022/06/18 03:37:10;;;;;;;5.80;3.70;;;;;20.70;101322.00;;;;10206144;29;20598;-79
2022/06/18 03:42:13;;;;;;;8.05;3.63;;;;;20.70;101319.00;;;;10225639;29;20249;-79
2022/06/18 03:47:15;;;;;;;7.05;3.42;;;;;20.80;101329.00;;;;10213809;29;20238;-79
2022/06/18 03:52:19;;;;;;;7.10;3.90;;;;;20.80;101331.00;;;;10229028;29;20261;-79
2022/06/18 03:57:21;;;;;;;7.07;4.20;;;;;20.80;101322.00;;;;10225653;29;20560;-79
2022/06/18 04:02:25;;;;;;;7.38;3.85;;;;;20.80;101319.00;;;;10205005;29;20249;-78
2022/06/18 04:07:27;;;;;;;6.68;3.67;;;;;20.80;101319.00;;;;10213693;28;20236;-78
2022/06/18 04:12:44;;;;;;;8.43;3.35;;;;;20.90;101324.00;;;;10220885;29;20829;-78
2022/06/18 04:18:02;;;;;;;7.15;3.65;;;;;21.00;101330.00;;;;10175962;29;20253;-79
2022/06/18 04:23:05;;;;;;;6.22;3.88;;;;;21.10;101333.00;;;;10158684;29;20203;-78
2022/06/18 04:28:14;;;;;;;7.40;3.83;;;;;21.30;101331.00;;;;10180067;29;20211;-78
2022/06/18 04:33:22;;;;;;;7.60;3.58;;;;;21.40;101326.00;;;;10239799;29;20275;-78
2022/06/18 04:38:30;;;;;;;5.82;3.95;;;;;21.50;101325.00;;;;10212294;29;20216;-79
2022/06/18 04:43:59;;;;;;;5.45;3.60;;;;;21.70;101333.00;;;;10202295;29;20195;-78
2022/06/18 04:49:03;;;;;;;3.08;2.78;;;;;21.90;101322.00;;;;10173108;29;20574;-78
2022/06/18 04:54:05;;;;;;;5.45;3.95;;;;;22.10;101315.00;;;;10190696;29;20708;-79
2022/06/18 04:59:07;;;;;;;6.40;3.80;;;;;22.30;101314.00;;;;10186762;29;20197;-78
2022/06/18 05:04:10;;;;;;;5.72;3.50;;;;;22.60;101311.00;;;;10199267;29;20248;-78
2022/06/18 05:09:39;;;;;;;5.80;2.97;;;;;22.80;101310.00;;;;10223833;29;20752;-78
2022/06/18 05:14:52;;;;;;;9.70;3.67;;;;;23.10;101310.00;;;;10202413;29;20611;-79
2022/06/18 05:19:56;;;;;;;4.75;3.35;;;;;23.50;101309.00;;;;10218229;29;20197;-78
2022/06/18 05:24:59;;;;;;;11.27;3.60;;;;;23.80;101310.00;;;;10207144;29;20657;-78
2022/06/18 05:30:09;;;;;;;8.48;3.85;;;;;24.20;101309.00;;;;10224144;29;20205;-78
2022/06/18 05:35:18;;;;;;;5.53;3.00;;;;;24.60;101315.00;;;;10200941;29;20213;-78
2022/06/18 05:40:20;;;;;;;5.30;3.38;;;;;25.00;101311.00;;;;10211744;29;20244;-79
2022/06/18 05:45:23;;;;;;;4.45;2.95;;;;;25.40;101301.00;;;;10207161;29;20193;-79
2022/06/18 05:50:25;;;;;;;5.68;3.30;;;;;25.80;101308.00;;;;10210065;29;20206;-79
2022/06/18 05:55:28;;;;;;;7.43;3.67;;;;;26.20;101307.00;;;;10177337;29;20198;-78
2022/06/18 06:00:38;;;;;;;10.20;3.55;;;;;26.60;101311.00;;;;10176004;29;20610;-79
2022/06/18 06:05:40;;;;;;;7.90;3.20;;;;;27.00;101310.00;;;;10238481;29;20197;-80
2022/06/18 06:16:04;;;;;;;6.13;3.42;;;;;27.70;101307.00;;;;10223559;29;20201;-79
2022/06/18 06:21:06;;;;;;;6.82;3.35;;;;;27.90;101304.00;;;;10222975;29;20221;-79
2022/06/18 06:26:24;;;;;;;10.07;3.65;;;;;28.30;101304.00;;;;10222894;29;20645;-79
2022/06/18 06:31:27;;;;;;;9.63;3.35;;;;;28.60;101300.00;;;;10214175;29;20685;-79
2022/06/18 06:36:29;;;;;;;7.30;3.65;;;;;28.90;101300.00;;;;10183602;29;20198;-80
2022/06/18 06:41:36;;;;;;;8.05;3.72;;;;;29.20;101300.00;;;;10234329;29;20189;-79
2022/06/18 06:46:38;;;;;;;9.68;3.90;;;;;29.20;101302.00;;;;10223280;29;20609;-80
2022/06/18 06:51:40;;;;;;;8.43;3.58;;;;;29.40;101316.00;;;;10207403;29;20625;-79
2022/06/18 07:02:03;;;;;;;7.20;3.63;;;;;30.50;101302.00;;;;10231577;29;20190;-80
2022/06/18 07:07:05;;;;;;;10.80;3.33;;;;;30.60;101298.00;;;;10199193;28;20283;-79
2022/06/18 07:12:08;;;;;;;10.32;3.80;;;;;30.80;101305.00;;;;10231148;29;20229;-80
2022/06/18 07:17:18;;;;;;;12.02;3.67;;;;;31.00;101304.00;;;;10213566;29;20225;-79
2022/06/18 07:22:21;;;;;;;10.00;3.90;;;;;31.30;101297.00;;;;10245604;29;20189;-80
2022/06/18 07:27:23;;;;;;;12.93;3.65;;;;;31.70;101295.00;;;;10230288;29;20226;-80
2022/06/18 07:32:26;;;;;;;9.45;4.32;;;;;32.10;101302.00;;;;10245096;29;20229;-80
2022/06/18 07:37:29;;;;;;;7.30;3.80;;;;;32.30;101295.00;;;;10230419;29;20194;-80
2022/06/18 07:42:31;;;;;;;9.95;3.72;;;;;32.60;101294.00;;;;10214433;29;20209;-79
2022/06/18 07:47:33;;;;;;;11.30;3.75;;;;;32.80;101287.00;;;;10228321;28;20241;-80
2022/06/18 07:52:35;;;;;;;11.73;3.50;;;;;32.90;101279.00;;;;10244999;29;20222;-80
2022/06/18 07:57:37;;;;;;;7.57;3.47;;;;;33.10;101278.00;;;;10214024;29;20289;-80
2022/06/18 08:02:39;;;;;;;10.90;3.70;;;;;33.20;101274.00;;;;10213714;29;20483;-80
2022/06/18 08:07:41;;;;;;;9.68;3.60;;;;;33.90;101270.00;;;;10244623;29;20221;-79
2022/06/18 08:12:48;;;;;;;5.60;3.20;;;;;34.40;101260.00;;;;10229182;29;20241;-80
2022/06/18 08:17:50;;;;;;;11.57;3.78;;;;;34.70;101254.00;;;;10248223;29;20197;-80
2022/06/18 08:23:14;;;;;;;10.27;4.15;;;;;35.20;101247.00;;;;10228759;29;20186;-80
2022/06/18 08:28:16;;;;;;;10.82;3.13;;;;;35.50;101240.00;;;;10213685;29;20300;-80
2022/06/18 08:33:18;;;;;;;13.88;3.83;;;;;35.70;101239.00;;;;10212370;29;20225;-80
2022/06/18 08:38:20;;;;;;;14.18;3.13;;;;;36.20;101245.00;;;;10243727;29;20196;-80
2022/06/18 08:43:41;;;;;;;6.72;3.50;;;;;36.70;101242.00;;;;10211803;29;20193;-79
2022/06/18 08:49:02;;;;;;;10.55;3.78;;;;;36.90;101224.00;;;;10226699;29;20629;-80
2022/06/18 08:54:34;;;;;;;7.72;3.53;;;;;37.40;101223.00;;;;10226371;29;20198;-80
2022/06/18 08:59:46;;;;;;;8.43;3.78;;;;;37.50;101217.00;;;;10227363;29;20204;-80
2022/06/18 09:05:05;;;;;;;12.40;3.35;;;;;37.70;101211.00;;;;10240631;29;20261;-79
2022/06/18 09:10:53;;;;;;;9.02;3.33;;;;;37.80;101214.00;;;;10201719;29;20233;-80
2022/06/18 09:15:59;;;;;;;6.53;3.10;;;;;37.90;101207.00;;;;10185725;29;20729;-80
2022/06/18 09:21:07;;;;;;;8.00;2.95;;;;;37.90;101204.00;;;;10223653;29;20198;-80
2022/06/18 09:26:22;;;;;;;8.02;3.30;;;;;38.10;101202.00;;;;10225329;29;20208;-80
2022/06/18 09:32:02;;;;;;;10.57;3.63;;;;;38.30;101199.00;;;;10235592;29;20764;-79
2022/06/18 09:37:16;;;;;;;8.65;3.40;;;;;39.00;101204.00;;;;10238407;29;20217;-79
2022/06/18 09:42:24;;;;;;;6.88;2.88;;;;;39.30;101194.00;;;;10224192;29;20293;-79
2022/06/18 09:47:42;;;;;;;9.82;3.33;;;;;39.50;101187.00;;;;10224189;29;20198;-79
2022/06/18 09:52:48;;;;;;;9.65;3.53;;;;;39.60;101191.00;;;;10223143;29;20265;-79
2022/06/18 09:57:55;;;;;;;11.52;3.15;;;;;39.90;101190.00;;;;10239378;29;20193;-79
2022/06/18 10:03:12;;;;;;;8.55;3.33;;;;;40.10;101191.00;;;;10222453;29;20271;-80
2022/06/18 10:08:15;;;;;;;8.30;3.15;;;;;40.50;101197.00;;;;10227696;29;20228;-80
2022/06/18 10:13:23;;;;;;;7.13;3.30;;;;;40.80;101182.00;;;;10224520;29;20218;-79
2022/06/18 10:18:38;;;;;;;6.15;3.33;;;;;41.10;101180.00;;;;10223385;29;20204;-80
2022/06/18 10:23:47;;;;;;;9.18;3.60;;;;;41.00;101166.00;;;;10183353;29;20205;-80
2022/06/18 10:29:01;;;;;;;9.52;3.10;;;;;41.10;101172.00;;;;10215913;29;20209;-80
2022/06/18 10:34:25;;;;;;;8.52;2.95;;;;;41.30;101161.00;;;;10206606;29;20193;-79
2022/06/18 10:39:54;;;;;;;8.60;3.30;;;;;41.60;101151.00;;;;10202096;29;20189;-80
2022/06/18 10:45:25;;;;;;;8.02;3.33;;;;;40.90;101139.00;;;;10198985;29;20189;-79
2022/06/18 10:50:29;;;;;;;5.97;2.70;;;;;41.20;101139.00;;;;10198947;29;20216;-79
2022/06/18 10:55:30;;;;;;;5.57;2.85;;;;;41.50;101123.00;;;;10222987;29;20196;-79
2022/06/18 11:00:32;;;;;;;8.55;3.38;;;;;41.60;101122.00;;;;10255020;29;20185;-79
2022/06/18 11:05:43;;;;;;;8.35;3.53;;;;;42.10;101108.00;;;;10207426;29;20205;-80
2022/06/18 11:10:58;;;;;;;7.22;2.95;;;;;42.10;101105.00;;;;10222978;29;20221;-80
2022/06/18 11:16:18;;;;;;;7.93;3.13;;;;;42.50;101092.00;;;;10222901;29;20204;-79
2022/06/18 11:21:32;;;;;;;6.38;3.20;;;;;42.90;101090.00;;;;10206244;29;20204;-80
2022/06/18 11:26:34;;;;;;;6.68;3.00;;;;;42.80;101090.00;;;;10222202;29;20204;-79
2022/06/18 11:31:45;;;;;;;8.65;3.22;;;;;42.60;101079.00;;;;10199576;29;20221;-79
2022/06/18 11:36:50;;;;;;;9.55;3.10;;;;;42.80;101069.00;;;;10232813;29;20204;-79
2022/06/18 11:41:57;;;;;;;6.43;2.78;;;;;42.80;101070.00;;;;10209639;29;20223;-80
2022/06/18 11:47:40;;;;;;;9.40;3.30;;;;;42.60;101061.00;;;;10231071;29;20244;-79
2022/06/18 11:52:56;;;;;;;9.85;3.40;;;;;42.80;101059.00;;;;10211536;29;20224;-79
2022/06/18 11:58:21;;;;;;;10.23;2.80;;;;;42.30;101057.00;;;;10228551;29;20267;-79
2022/06/18 12:03:36;;;;;;;7.28;2.88;;;;;41.30;101043.00;;;;10226566;29;20236;-79
2022/06/18 12:08:38;;;;;;;5.95;2.90;;;;;41.50;101027.00;;;;10240758;29;20224;-80
2022/06/18 12:13:49;;;;;;;6.47;2.70;;;;;42.20;101027.00;;;;10204287;29;20589;-79
2022/06/18 12:19:19;;;;;;;7.60;3.15;;;;;41.90;101023.00;;;;10204022;29;20657;-79
2022/06/18 12:24:43;;;;;;;8.52;2.95;;;;;41.90;101018.00;;;;10228220;29;20185;-79
2022/06/18 12:30:07;;;;;;;6.45;2.80;;;;;41.90;101003.00;;;;10243331;29;20194;-80
2022/06/18 12:35:37;;;;;;;6.07;2.55;;;;;41.80;100987.00;;;;10220268;29;20193;-79
2022/06/18 12:41:02;;;;;;;6.90;2.90;;;;;42.00;100983.00;;;;10226321;29;20609;-79
2022/06/18 12:46:27;;;;;;;3.72;2.70;;;;;41.70;100980.00;;;;10225896;29;20259;-80
2022/06/18 12:51:52;;;;;;;6.15;3.03;;;;;41.60;100974.00;;;;10224198;28;20228;-79
2022/06/18 12:56:58;;;;;;;7.35;3.03;;;;;42.20;100964.00;;;;10225368;29;20533;-79
2022/06/18 13:02:08;;;;;;;7.07;2.65;;;;;42.70;100958.00;;;;10209419;29;20197;-80
2022/06/18 13:07:25;;;;;;;4.18;2.63;;;;;43.00;100953.00;;;;10255200;29;20315;-80
2022/06/18 13:12:59;;;;;;;6.90;3.10;;;;;42.40;100940.00;;;;10209873;29;20248;-80
2022/06/18 13:18:08;;;;;;;5.47;2.67;;;;;42.40;100942.00;;;;10241654;29;20240;-79
2022/06/18 13:28:40;;;;;;;7.05;3.00;;;;;42.60;100927.00;;;;10241531;29;20173;-79
2022/06/18 13:34:10;;;;;;;5.90;2.50;;;;;42.40;100916.00;;;;10224988;29;20212;-79
2022/06/18 13:39:37;;;;;;;10.15;2.55;;;;;42.20;100919.00;;;;10209147;29;20189;-79
2022/06/18 13:44:48;;;;;;;11.05;2.92;;;;;42.10;100908.00;;;;10225174;29;20836;-79
2022/06/18 13:50:18;;;;;;;3.97;2.50;;;;;42.40;100908.00;;;;10200764;29;20266;-79
2022/06/18 13:55:49;;;;;;;5.90;2.80;;;;;42.60;100905.00;;;;10217286;29;20689;-79
2022/06/18 14:01:13;;;;;;;15.90;3.08;;;;;42.70;100893.00;;;;10197516;29;20757;-79
2022/06/18 14:06:17;;;;;;;11.45;3.25;;;;;42.60;100882.00;;;;10200630;29;20222;-79
2022/06/18 14:11:33;;;;;;;8.73;2.70;;;;;43.20;100888.00;;;;10183715;29;20294;-79
2022/06/18 14:16:39;;;;;;;6.47;3.08;;;;;44.20;100872.00;;;;10189195;29;20262;-79
2022/06/18 14:21:42;;;;;;;9.32;3.25;;;;;44.80;100867.00;;;;10207346;29;20209;-79
2022/06/18 14:26:51;;;;;;;7.47;3.22;;;;;45.20;100856.00;;;;10208124;29;20669;-79
2022/06/18 14:32:08;;;;;;;7.97;3.42;;;;;46.20;100853.00;;;;10222490;29;20237;-79
2022/06/18 14:37:12;;;;;;;6.40;3.17;;;;;46.50;100837.00;;;;10222490;29;20200;-79
2022/06/18 14:42:37;;;;;;;5.28;2.92;;;;;45.80;100838.00;;;;10239311;29;20193;-79
2022/06/18 14:47:54;;;;;;;7.05;3.03;;;;;45.60;100830.00;;;;10192247;29;20209;-79
2022/06/18 14:52:56;;;;;;;8.45;2.65;;;;;45.60;100825.00;;;;10226840;29;20222;-79
2022/06/18 14:58:15;;;;;;;12.00;2.97;;;;;44.10;100813.00;;;;10239318;29;20345;-79
2022/06/18 15:03:23;;;;;;;7.88;3.10;;;;;45.70;100800.00;;;;10222085;29;20193;-79
2022/06/18 15:08:25;;;;;;;4.85;2.72;;;;;46.10;100787.00;;;;10238998;28;20221;-79
2022/06/18 15:13:27;;;;;;;9.95;2.80;;;;;45.70;100777.00;;;;10222882;28;20259;-79
2022/06/18 15:18:37;;;;;;;8.27;3.08;;;;;45.30;100773.00;;;;10245031;29;20268;-79
2022/06/18 15:23:51;;;;;;;6.13;2.88;;;;;45.50;100775.00;;;;10230307;29;20205;-79
2022/06/18 15:28:53;;;;;;;5.05;3.00;;;;;45.60;100764.00;;;;10230943;29;20200;-79
2022/06/18 15:33:56;;;;;;;6.32;3.15;;;;;44.80;100754.00;;;;10213945;29;20592;-79
2022/06/18 15:39:05;;;;;;;7.25;3.28;;;;;42.70;100750.00;;;;10230093;29;20228;-79
2022/06/18 15:44:15;;;;;;;7.03;2.85;;;;;40.70;100736.00;;;;10246707;29;20170;-79
2022/06/18 15:49:32;;;;;;;8.73;3.03;;;;;40.50;100720.00;;;;10213098;29;20201;-79
2022/06/18 15:54:39;;;;;;;7.07;2.90;;;;;39.30;100713.00;;;;10230078;29;20608;-79
2022/06/18 15:59:43;;;;;;;6.32;2.80;;;;;38.80;100705.00;;;;10229653;29;20197;-79
2022/06/18 16:04:45;;;;;;;10.07;3.15;;;;;38.50;100703.00;;;;10218681;29;20206;-78
2022/06/18 16:10:03;;;;;;;5.85;3.22;;;;;38.30;100704.00;;;;10191027;29;20329;-78
2022/06/18 16:15:30;;;;;;;5.50;3.05;;;;;37.80;100688.00;;;;10190463;29;20729;-80
2022/06/18 16:20:32;;;;;;;6.03;2.75;;;;;37.40;100683.00;;;;10202365;29;20212;-79
2022/06/18 16:25:46;;;;;;;8.75;2.92;;;;;37.10;100676.00;;;;10228356;28;20206;-78
2022/06/18 16:30:53;;;;;;;11.38;3.22;;;;;36.50;100673.00;;;;10228680;29;20228;-79
2022/06/18 16:35:58;;;;;;;8.68;3.35;;;;;35.70;100672.00;;;;10204927;29;20206;-79
2022/06/18 16:41:13;;;;;;;9.43;2.97;;;;;35.30;100676.00;;;;10189725;29;20199;-79
2022/06/18 16:46:21;;;;;;;12.43;4.22;;;;;34.80;100666.00;;;;10190144;29;20242;-79
2022/06/18 16:51:36;;;;;;;13.60;4.97;;;;;34.40;100672.00;;;;10193782;29;20222;-80
2022/06/18 16:56:38;;;;;;;12.05;4.80;;;;;34.00;100664.00;;;;10206961;29;20284;-80
2022/06/18 17:01:40;;;;;;;10.05;5.53;;;;;33.60;100670.00;;;;10225090;29;20371;-79
2022/06/18 17:06:42;;;;;;;12.05;5.20;;;;;33.40;100663.00;;;;10210042;29;20308;-80
2022/06/18 17:11:45;;;;;;;11.25;5.35;;;;;33.30;100665.00;;;;10210465;29;20264;-80
2022/06/18 17:16:48;;;;;;;16.42;6.05;;;;;33.00;100665.00;;;;10224150;29;20197;-80
2022/06/18 17:21:51;;;;;;;12.15;5.78;;;;;32.70;100664.00;;;;10241082;29;20189;-80
2022/06/18 17:32:15;;;;;;;14.93;6.03;;;;;32.60;100654.00;;;;10224237;29;20296;-80
2022/06/18 17:37:21;;;;;;;14.57;5.95;;;;;32.40;100637.00;;;;10240366;28;20565;-80
2022/06/18 17:42:23;;;;;;;13.15;6.65;;;;;32.10;100641.00;;;;10213270;29;20198;-79
2022/06/18 17:47:25;;;;;;;11.45;6.25;;;;;31.90;100632.00;;;;10216628;29;20256;-79
2022/06/18 17:52:28;;;;;;;15.30;6.03;;;;;31.80;100635.00;;;;10200150;28;20225;-79
2022/06/18 17:57:30;;;;;;;38.55;9.38;;;;;31.40;100622.00;;;;10226810;29;20193;-79
2022/06/18 18:02:33;;;;;;;15.52;6.00;;;;;31.10;100625.00;;;;10206224;28;20253;-78
2022/06/18 18:07:34;;;;;;;13.50;5.60;;;;;31.00;100620.00;;;;10250849;28;20229;-79
2022/06/18 18:12:38;;;;;;;11.93;6.55;;;;;30.90;100622.00;;;;10228221;28;20222;-78
2022/06/18 18:17:44;;;;;;;10.65;5.28;;;;;30.70;100616.00;;;;10204939;29;20202;-79
2022/06/18 18:22:46;;;;;;;11.23;5.60;;;;;30.60;100609.00;;;;10202886;29;20189;-79
2022/06/18 18:27:54;;;;;;;13.00;5.88;;;;;30.40;100605.00;;;;10223460;29;20289;-79
2022/06/18 18:32:58;;;;;;;13.70;5.75;;;;;30.20;100603.00;;;;10237514;29;20316;-79
2022/06/18 18:38:00;;;;;;;12.65;5.55;;;;;30.00;100591.00;;;;10236803;29;20205;-79
2022/06/18 18:43:03;;;;;;;15.32;6.22;;;;;29.80;100597.00;;;;10222304;29;20190;-79
2022/06/18 18:48:05;;;;;;;14.80;6.10;;;;;29.60;100590.00;;;;10205061;29;20202;-80
2022/06/18 18:53:07;;;;;;;14.30;6.18;;;;;29.40;100579.00;;;;10176004;29;20693;-80
2022/06/18 18:58:10;;;;;;;9.23;5.25;;;;;29.20;100564.00;;;;10192053;29;20186;-79
2022/06/18 19:03:14;;;;;;;16.50;6.00;;;;;29.00;100557.00;;;;10214479;29;20213;-79
2022/06/18 19:08:16;;;;;;;14.52;5.75;;;;;28.90;100549.00;;;;10230219;29;20213;-79
2022/06/18 19:13:23;;;;;;;15.85;5.72;;;;;28.70;100540.00;;;;10230328;29;20214;-79
2022/06/18 19:18:29;;;;;;;9.10;5.85;;;;;28.40;100543.00;;;;10211071;29;20658;-80
2022/06/18 19:23:33;;;;;;;13.68;5.35;;;;;28.20;100532.00;;;;10245128;29;20259;-79
2022/06/18 19:28:41;;;;;;;9.85;5.38;;;;;28.00;100530.00;;;;10230942;29;20197;-79
2022/06/18 19:33:44;;;;;;;13.02;5.40;;;;;27.80;100527.00;;;;10228641;29;20228;-78
2022/06/18 19:38:46;;;;;;;12.20;5.90;;;;;27.50;100529.00;;;;10230060;29;20206;-79
2022/06/18 19:43:48;;;;;;;12.25;5.25;;;;;27.30;100535.00;;;;10229215;29;20668;-78
2022/06/18 19:48:50;;;;;;;12.60;5.32;;;;;27.20;100524.00;;;;10196858;29;20688;-79
2022/06/18 19:53:54;;;;;;;10.40;5.35;;;;;27.00;100520.00;;;;10242485;29;20256;-78
2022/06/18 19:58:55;;;;;;;10.98;5.55;;;;;26.90;100512.00;;;;10204223;29;20559;-78
2022/06/18 20:03:58;;;;;;;9.52;4.65;;;;;26.70;100505.00;;;;10198777;29;20196;-79
2022/06/18 20:09:00;;;;;;;12.80;4.93;;;;;26.50;100514.00;;;;10226833;28;20275;-78
2022/06/18 20:14:02;;;;;;;9.18;4.93;;;;;26.40;100513.00;;;;10227331;29;20224;-79
2022/06/18 20:19:04;;;;;;;9.65;4.65;;;;;26.20;100501.00;;;;10243801;29;20194;-79
2022/06/18 20:24:07;;;;;;;10.23;5.03;;;;;26.10;100492.00;;;;10202166;29;20282;-79
2022/06/18 20:29:09;;;;;;;8.13;4.50;;;;;25.90;100496.00;;;;10203746;29;20277;-79
2022/06/18 20:34:12;;;;;;;13.75;4.57;;;;;25.80;100495.00;;;;10190034;29;20709;-79
2022/06/18 20:39:14;;;;;;;8.55;4.13;;;;;25.60;100493.00;;;;10259631;29;20196;-79
2022/06/18 20:44:18;;;;;;;9.35;4.20;;;;;25.50;100495.00;;;;10243670;29;20256;-78
2022/06/18 20:49:20;;;;;;;9.45;4.45;;;;;25.30;100504.00;;;;10226460;29;20304;-78
2022/06/18 20:59:50;;;;;;;5.40;4.10;;;;;25.10;100507.00;;;;10172204;29;20257;-79
2022/06/18 21:04:52;;;;;;;7.85;3.75;;;;;24.90;100515.00;;;;10186461;29;20190;-78
2022/06/18 21:09:59;;;;;;;9.02;3.80;;;;;24.80;100524.00;;;;10205125;29;20214;-78
2022/06/18 21:15:01;;;;;;;6.47;4.22;;;;;24.70;100535.00;;;;10184852;29;20690;-79
2022/06/18 21:20:05;;;;;;;7.40;3.90;;;;;24.60;100549.00;;;;10219823;29;20262;-78
2022/06/18 21:25:07;;;;;;;6.53;4.07;;;;;24.40;100535.00;;;;10185750;29;20191;-78
2022/06/18 21:30:11;;;;;;;10.90;3.97;;;;;24.20;100530.00;;;;10223186;29;20198;-79
2022/06/18 21:40:45;;;;;;;8.68;3.72;;;;;23.80;100541.00;;;;10227198;29;20625;-79
2022/06/18 21:45:48;;;;;;;4.88;3.25;;;;;23.70;100538.00;;;;10218712;29;20221;-78
2022/06/18 21:50:51;;;;;;;10.90;3.50;;;;;23.40;100526.00;;;;10203964;29;20261;-78
2022/06/18 21:56:00;;;;;;;9.65;3.15;;;;;23.10;100521.00;;;;10226856;29;20669;-79
2022/06/18 22:01:02;;;;;;;10.13;3.28;;;;;22.80;100514.00;;;;10189633;29;20185;-79
2022/06/18 22:06:06;;;;;;;9.57;2.92;;;;;22.60;100521.00;;;;10218108;29;20300;-79
2022/06/18 22:11:08;;;;;;;7.55;2.85;;;;;22.40;100503.00;;;;10205455;29;20217;-78
2022/06/18 22:21:31;;;;;;;8.00;2.67;;;;;22.00;100507.00;;;;10239562;29;20250;-79
2022/06/18 22:26:33;;;;;;;11.18;3.08;;;;;21.90;100493.00;;;;10207104;29;20198;-78
2022/06/18 22:31:36;;;;;;;9.10;3.00;;;;;21.70;100512.00;;;;10199424;29;20229;-79
2022/06/18 22:36:38;;;;;;;7.20;2.78;;;;;21.60;100517.00;;;;10220946;29;20562;-79
2022/06/18 22:41:43;;;;;;;9.18;2.83;;;;;21.50;100499.00;;;;10203670;29;20195;-80
2022/06/18 22:46:48;;;;;;;10.10;2.67;;;;;21.20;100507.00;;;;10177333;29;20566;-79
2022/06/18 22:51:52;;;;;;;6.72;2.70;;;;;21.10;100496.00;;;;10201403;29;20728;-80
2022/06/18 22:56:55;;;;;;;11.45;2.85;;;;;21.00;100480.00;;;;10223199;29;20217;-80
2022/06/18 23:01:57;;;;;;;7.20;2.58;;;;;20.80;100461.00;;;;10211233;29;20201;-79
2022/06/18 23:07:00;;;;;;;11.63;2.60;;;;;20.70;100453.00;;;;10222970;28;20249;-79
2022/06/18 23:12:03;;;;;;;6.28;2.60;;;;;20.50;100429.00;;;;10222478;29;20221;-79
2022/06/18 23:17:22;;;;;;;8.27;2.58;;;;;20.40;100412.00;;;;10230085;29;20190;-78
2022/06/18 23:22:24;;;;;;;11.57;2.67;;;;;20.30;100383.00;;;;10213712;29;20183;-79
2022/06/18 23:27:26;;;;;;;8.38;2.60;;;;;20.20;100352.00;;;;10197341;29;20213;-79
2022/06/18 23:32:30;;;;;;;7.80;2.40;;;;;20.10;100337.00;;;;10215109;29;20241;-77
2022/06/18 23:37:36;;;;;;;9.20;2.97;;;;;20.00;100323.00;;;;10223920;29;20689;-77
2022/06/18 23:42:38;;;;;;;10.68;2.50;;;;;19.90;100340.00;;;;10227791;29;20178;-77
2022/06/18 23:47:41;;;;;;;8.52;2.30;;;;;19.80;100367.00;;;;10244254;29;20194;-78
2022/06/18 23:52:42;;;;;;;7.47;2.40;;;;;19.70;100347.00;;;;10228020;29;20217;-78
2022/06/18 23:57:46;;;;;;;7.32;2.40;;;;;19.70;100362.00;;;;10227869;29;20182;-79
